Time;durP1;ratioP1;P1;durP2;ratioP2;P2;SDS_P1;SDS_P2;PMS_P1;PMS_P2;Temp;Humidity;BMP_temperature;BMP_pressure;BME280_temperature;BME280_humidity;BME280_pressure;Samples;Min_cycle;Max_cycle;Signal;HPM_P1;HPM_P2
2022/09/23 00:01:02;;;;;;;25.70;13.10;;;;;;;8.35;93.18;98874.73;105559;1276;138946;-73
2022/09/23 00:03:36;;;;;;;20.80;13.10;;;;;;;8.38;92.85;98866.98;105653;1276;25268;-73
2022/09/23 00:06:12;;;;;;;25.60;15.70;;;;;;;8.40;93.07;98866.38;106068;1277;31685;-73
2022/09/23 00:08:39;;;;;;;28.20;15.80;;;;;;;8.41;92.91;98864.91;105762;1277;138386;-73
2022/09/23 00:11:08;;;;;;;24.10;15.70;;;;;;;8.42;93.03;98864.03;105871;1277;25353;-73
2022/09/23 00:13:35;;;;;;;26.20;17.60;;;;;;;8.43;92.91;98861.92;105764;1277;138235;-73
2022/09/23 00:16:06;;;;;;;25.20;16.60;;;;;;;8.45;92.89;98865.50;105990;1277;25260;-73
2022/09/23 00:18:32;;;;;;;27.40;16.00;;;;;;;8.46;92.79;98863.10;105596;1277;22563;-72
2022/09/23 00:21:07;;;;;;;24.40;14.90;;;;;;;8.46;92.84;98860.27;105711;1277;138075;-73
2022/09/23 00:23:34;;;;;;;23.80;15.90;;;;;;;8.47;92.77;98857.21;105828;1277;22673;-75
2022/09/23 00:26:03;;;;;;;26.90;16.50;;;;;;;8.47;92.81;98852.11;105418;1277;138188;-75
2022/09/23 00:28:32;;;;;;;28.80;16.60;;;;;;;8.47;92.92;98847.73;105843;1276;22549;-75
2022/09/23 00:31:16;;;;;;;28.90;17.90;;;;;;;8.48;92.51;98851.44;105445;1277;138304;-75
2022/09/23 00:33:43;;;;;;;27.70;17.90;;;;;;;8.49;92.74;98848.56;105778;1276;22541;-73
2022/09/23 00:36:11;;;;;;;26.70;17.80;;;;;;;8.49;92.62;98848.17;105832;1276;22847;-75
2022/09/23 00:38:38;;;;;;;29.20;18.70;;;;;;;8.50;92.80;98844.51;105795;1277;138491;-73
2022/09/23 00:41:05;;;;;;;26.40;18.80;;;;;;;8.50;92.68;98843.08;105794;1277;24425;-72
2022/09/23 00:43:41;;;;;;;29.10;19.40;;;;;;;8.49;92.77;98838.24;105764;1276;138517;-73
2022/09/23 00:46:10;;;;;;;31.30;20.20;;;;;;;8.49;92.53;98839.65;105483;1277;25274;-72
2022/09/23 00:48:40;;;;;;;32.70;19.50;;;;;;;8.49;92.66;98837.95;105799;1276;22700;-73
2022/09/23 00:51:11;;;;;;;29.10;19.90;;;;;;;8.49;92.71;98842.66;105743;1276;138324;-73
2022/09/23 00:53:38;;;;;;;31.10;20.80;;;;;;;8.48;92.90;98840.38;105730;1276;22541;-73
2022/09/23 00:56:11;;;;;;;27.90;19.40;;;;;;;8.48;92.80;98844.18;105993;1277;138129;-73
2022/09/23 00:58:40;;;;;;;32.60;19.90;;;;;;;8.48;92.69;98840.80;105873;1276;22906;-73
2022/09/23 01:01:07;;;;;;;28.40;20.50;;;;;;;8.48;92.82;98843.79;105778;1276;138231;-73
2022/09/23 01:03:36;;;;;;;31.60;21.70;;;;;;;8.49;92.96;98839.16;105843;1277;23714;-73
2022/09/23 01:06:07;;;;;;;33.50;21.20;;;;;;;8.50;92.88;98839.77;105795;1277;23930;-73
2022/09/23 01:08:34;;;;;;;35.50;20.30;;;;;;;8.50;92.97;98840.53;105321;1279;138260;-73
2022/09/23 01:11:17;;;;;;;31.10;19.70;;;;;;;8.49;92.75;98835.85;105375;1279;22602;-73
2022/09/23 01:14:09;;;;;;;33.10;21.30;;;;;;;8.49;92.61;98837.20;105605;1278;137989;-73
2022/09/23 01:16:44;;;;;;;31.30;20.70;;;;;;;8.48;92.76;98830.48;104995;1283;25276;-73
2022/09/23 01:19:33;;;;;;;34.10;20.90;;;;;;;8.48;92.96;98828.46;104700;1283;138128;-73
2022/09/23 01:22:34;;;;;;;30.70;21.20;;;;;;;8.48;92.87;98830.94;105074;1283;22544;-73
2022/09/23 01:25:19;;;;;;;37.80;22.60;;;;;;;8.48;93.09;98828.48;104453;1289;138393;-73
2022/09/23 01:28:22;;;;;;;31.60;22.60;;;;;;;8.49;93.07;98822.41;104671;1286;30287;-73
2022/09/23 01:31:14;;;;;;;31.90;22.00;;;;;;;8.49;92.86;98822.55;104725;1287;22688;-74
2022/09/23 01:33:53;;;;;;;36.60;23.90;;;;;;;8.48;92.88;98821.75;104793;1286;22576;-72
2022/09/23 01:36:38;;;;;;;37.90;24.20;;;;;;;8.46;92.94;98825.10;104744;1287;22535;-73
2022/09/23 01:39:14;;;;;;;34.60;23.40;;;;;;;8.44;92.96;98822.86;104606;1287;138104;-75
2022/09/23 01:41:57;;;;;;;35.40;24.00;;;;;;;8.43;93.06;98820.91;104760;1286;22732;-73
2022/09/23 01:44:47;;;;;;;37.30;23.50;;;;;;;8.41;93.00;98821.70;104646;1287;138241;-73
2022/09/23 01:47:20;;;;;;;37.70;23.80;;;;;;;8.40;93.03;98823.21;104954;1286;25370;-73
2022/09/23 01:50:54;;;;;;;35.80;22.70;;;;;;;8.39;93.07;98821.91;104697;1286;138073;-73
2022/09/23 01:53:03;;;;;;;33.50;22.80;;;;;;;8.39;93.17;98820.83;104779;1286;22755;-73
2022/09/23 01:55:33;;;;;;;31.90;21.40;;;;;;;8.39;93.02;98819.59;105200;1283;138560;-73
2022/09/23 01:58:28;;;;;;;32.30;22.60;;;;;;;8.39;93.06;98816.58;105178;1283;24251;-73
2022/09/23 02:01:02;;;;;;;34.20;22.50;;;;;;;8.39;93.32;98816.58;104230;1290;138416;-73
2022/09/23 02:03:37;;;;;;;32.10;22.70;;;;;;;8.38;93.15;98819.92;104900;1285;22565;-72
2022/09/23 02:06:13;;;;;;;37.00;21.70;;;;;;;8.36;93.08;98816.17;104848;1285;22575;-73
2022/09/23 02:08:59;;;;;;;34.00;22.20;;;;;;;8.35;93.29;98815.95;104861;1284;138183;-75
2022/09/23 02:11:27;;;;;;;32.30;21.90;;;;;;;8.34;93.36;98817.80;104984;1284;26734;-73
2022/09/23 02:14:01;;;;;;;36.80;22.00;;;;;;;8.33;93.51;98818.80;104820;1284;138122;-76
2022/09/23 02:16:32;;;;;;;33.20;23.40;;;;;;;8.31;93.40;98821.02;104907;1284;22560;-73
2022/09/23 02:19:19;;;;;;;36.30;24.20;;;;;;;8.30;93.14;98820.41;104725;1284;138402;-73
2022/09/23 02:21:57;;;;;;;30.20;20.90;;;;;;;8.28;93.41;98820.97;104991;1284;22791;-73
2022/09/23 02:24:33;;;;;;;31.60;21.00;;;;;;;8.26;93.32;98822.06;104946;1284;22570;-73
2022/09/23 02:27:24;;;;;;;31.00;23.20;;;;;;;8.22;93.35;98820.40;104873;1283;138292;-75
2022/09/23 02:30:02;;;;;;;36.40;23.50;;;;;;;8.20;93.56;98819.40;104964;1284;23954;-73
2022/09/23 02:32:52;;;;;;;34.40;23.20;;;;;;;8.20;93.83;98819.65;104892;1284;138140;-76
2022/09/23 02:35:18;;;;;;;34.40;22.70;;;;;;;8.21;93.80;98819.82;104952;1284;22651;-74
2022/09/23 02:37:47;;;;;;;33.80;24.10;;;;;;;8.22;93.73;98820.81;104996;1280;138072;-74
2022/09/23 02:40:22;;;;;;;32.70;23.00;;;;;;;8.23;94.00;98819.54;105760;1277;22540;-74
2022/09/23 02:42:57;;;;;;;35.50;22.80;;;;;;;8.24;93.89;98816.37;105849;1277;24326;-73
2022/09/23 02:45:23;;;;;;;34.00;23.80;;;;;;;8.25;94.05;98821.28;105856;1277;25387;-73
2022/09/23 02:47:56;;;;;;;34.90;23.80;;;;;;;8.25;93.73;98817.65;105955;1277;22730;-73
2022/09/23 02:50:23;;;;;;;37.30;25.20;;;;;;;8.26;93.83;98816.44;105873;1274;138301;-73
2022/09/23 02:52:50;;;;;;;37.00;24.90;;;;;;;8.28;93.86;98815.59;105826;1274;22554;-75
2022/09/23 02:55:18;;;;;;;34.00;23.40;;;;;;;8.29;93.77;98813.45;105821;1274;138179;-75
2022/09/23 02:57:45;;;;;;;35.60;24.10;;;;;;;8.30;93.62;98815.64;106217;1274;22540;-76
2022/09/23 03:00:12;;;;;;;37.40;25.00;;;;;;;8.28;93.71;98818.67;105947;1274;23200;-76
2022/09/23 03:02:51;;;;;;;37.40;24.90;;;;;;;8.28;93.61;98821.23;105668;1275;138550;-73
2022/09/23 03:05:25;;;;;;;33.80;24.20;;;;;;;8.26;93.71;98819.97;105813;1274;24230;-73
2022/09/23 03:08:18;;;;;;;36.00;25.80;;;;;;;8.25;93.70;98818.15;105721;1277;138218;-75
2022/09/23 03:11:04;;;;;;;38.90;25.40;;;;;;;8.23;93.69;98818.64;105817;1277;25527;-74
2022/09/23 03:13:54;;;;;;;40.00;26.60;;;;;;;8.20;93.75;98822.58;105682;1275;138336;-73
2022/09/23 03:16:23;;;;;;;35.70;25.60;;;;;;;8.15;93.99;98821.69;105552;1277;22629;-74
2022/09/23 03:19:17;;;;;;;44.50;26.70;;;;;;;8.13;93.84;98817.16;105860;1277;22547;-74
2022/09/23 03:22:01;;;;;;;35.10;25.80;;;;;;;8.12;94.31;98816.91;105685;1277;22570;-74
2022/09/23 03:24:31;;;;;;;39.50;26.70;;;;;;;8.10;94.17;98815.55;105732;1277;22657;-73
2022/09/23 03:27:02;;;;;;;36.80;25.00;;;;;;;8.09;94.11;98814.52;105726;1277;138224;-74
2022/09/23 03:29:31;;;;;;;39.70;25.70;;;;;;;8.06;94.22;98813.88;105684;1277;22683;-74
2022/09/23 03:32:01;;;;;;;38.50;26.20;;;;;;;8.04;94.28;98814.64;105799;1277;138298;-74
2022/09/23 03:34:30;;;;;;;37.20;25.00;;;;;;;8.03;94.51;98818.94;105840;1277;25270;-73
2022/09/23 03:37:30;;;;;;;40.00;25.60;;;;;;;8.03;94.57;98819.11;105764;1277;138192;-74
2022/09/23 03:40:06;;;;;;;37.20;24.50;;;;;;;8.03;94.53;98813.35;105784;1277;22556;-74
2022/09/23 03:42:34;;;;;;;38.90;24.60;;;;;;;8.04;94.65;98814.77;105873;1277;22636;-74
2022/09/23 03:45:08;;;;;;;40.70;26.60;;;;;;;8.05;94.78;98818.35;105773;1277;138314;-74
2022/09/23 03:47:38;;;;;;;42.40;26.70;;;;;;;8.05;94.94;98812.30;105802;1277;24338;-74
2022/09/23 03:50:05;;;;;;;38.50;25.40;;;;;;;8.06;94.69;98812.66;105733;1277;138219;-74
2022/09/23 03:52:32;;;;;;;40.50;26.40;;;;;;;8.06;94.73;98807.44;105797;1274;23979;-74
2022/09/23 03:55:00;;;;;;;40.30;25.60;;;;;;;8.07;94.53;98806.23;105807;1274;138698;-74
2022/09/23 03:57:27;;;;;;;40.00;26.40;;;;;;;8.08;94.55;98806.85;105824;1277;23615;-74
2022/09/23 03:59:53;;;;;;;36.80;24.50;;;;;;;8.07;94.64;98802.67;105835;1277;24292;-74
2022/09/23 04:02:20;;;;;;;44.70;27.30;;;;;;;8.06;94.57;98804.06;105584;1277;138295;-73
2022/09/23 04:04:46;;;;;;;39.70;26.40;;;;;;;8.04;94.71;98803.38;105534;1277;22543;-74
2022/09/23 04:07:13;;;;;;;39.30;24.90;;;;;;;8.04;94.50;98802.92;105747;1277;138773;-75
2022/09/23 04:09:40;;;;;;;40.60;26.30;;;;;;;8.04;94.61;98801.70;105789;1277;25380;-74
2022/09/23 04:12:07;;;;;;;48.00;27.60;;;;;;;8.02;94.48;98802.48;105820;1277;25312;-74
2022/09/23 04:14:33;;;;;;;42.40;28.50;;;;;;;8.00;94.71;98802.89;105718;1277;138294;-74
2022/09/23 04:16:59;;;;;;;44.40;27.20;;;;;;;7.98;94.55;98803.13;105851;1277;25255;-73
2022/09/23 04:19:25;;;;;;;42.40;26.10;;;;;;;7.97;94.50;98804.05;105737;1277;139020;-75
2022/09/23 04:21:51;;;;;;;42.60;27.40;;;;;;;7.95;94.57;98805.06;105717;1277;22557;-73
2022/09/23 04:24:18;;;;;;;45.20;26.80;;;;;;;7.94;94.60;98809.73;105881;1277;24322;-73
2022/09/23 04:26:44;;;;;;;40.10;26.10;;;;;;;7.92;94.59;98807.09;105712;1277;138368;-73
2022/09/23 04:29:13;;;;;;;43.50;27.10;;;;;;;7.92;94.77;98811.10;105832;1277;22551;-75
2022/09/23 04:31:39;;;;;;;46.60;27.60;;;;;;;7.91;94.50;98808.60;105734;1277;138899;-74
2022/09/23 04:34:06;;;;;;;45.90;27.00;;;;;;;7.90;94.46;98811.45;105807;1277;25714;-74
2022/09/23 04:36:32;;;;;;;43.90;28.10;;;;;;;7.90;94.53;98812.87;105841;1277;26534;-74
2022/09/23 04:38:58;;;;;;;42.50;27.70;;;;;;;7.89;94.56;98813.38;105783;1277;138330;-74
2022/09/23 04:41:24;;;;;;;39.50;25.60;;;;;;;7.88;94.54;98814.23;105855;1276;22549;-74
2022/09/23 04:43:51;;;;;;;42.70;26.00;;;;;;;7.87;94.53;98814.92;105893;1275;138432;-74
2022/09/23 04:46:18;;;;;;;42.40;26.40;;;;;;;7.87;94.51;98814.21;105844;1277;25503;-74
2022/09/23 04:48:44;;;;;;;43.10;28.60;;;;;;;7.86;94.45;98812.15;106162;1277;22553;-73
2022/09/23 04:51:17;;;;;;;44.70;27.90;;;;;;;7.86;94.70;98815.06;105604;1276;138350;-74
2022/09/23 04:53:45;;;;;;;44.80;27.60;;;;;;;7.86;94.38;98811.81;106284;1276;25331;-74
2022/09/23 04:56:19;;;;;;;45.30;26.50;;;;;;;7.87;94.49;98813.26;105995;1274;138749;-74
2022/09/23 04:58:45;;;;;;;43.20;26.90;;;;;;;7.88;94.75;98816.88;105926;1276;24090;-73
2022/09/23 05:01:18;;;;;;;38.90;26.80;;;;;;;7.89;94.64;98814.29;105665;1276;138592;-73
2022/09/23 05:03:45;;;;;;;42.40;27.80;;;;;;;7.89;94.60;98816.16;105895;1277;22557;-73
2022/09/23 05:06:13;;;;;;;43.40;26.90;;;;;;;7.89;94.79;98815.45;105864;1277;24489;-74
2022/09/23 05:08:41;;;;;;;44.10;27.20;;;;;;;7.90;94.63;98816.99;105763;1277;138249;-73
2022/09/23 05:11:19;;;;;;;49.40;27.90;;;;;;;7.90;94.78;98815.23;106679;1277;24499;-74
2022/09/23 05:13:52;;;;;;;47.40;27.50;;;;;;;7.90;94.52;98816.29;105666;1277;138285;-75
2022/09/23 05:16:39;;;;;;;51.50;28.40;;;;;;;7.90;94.54;98822.42;105592;1277;25333;-73
2022/09/23 05:19:06;;;;;;;61.20;30.30;;;;;;;7.89;94.78;98822.72;105476;1277;138452;-75
2022/09/23 05:21:32;;;;;;;52.50;28.80;;;;;;;7.89;94.45;98822.55;106331;1277;22596;-74
2022/09/23 05:23:59;;;;;;;50.70;27.50;;;;;;;7.90;94.75;98823.59;106418;1277;22498;-73
2022/09/23 05:26:28;;;;;;;54.00;28.70;;;;;;;7.90;94.44;98825.59;106118;1277;138338;-73
2022/09/23 05:28:55;;;;;;;47.60;29.00;;;;;;;7.90;94.62;98829.42;106363;1277;22681;-73
2022/09/23 05:31:23;;;;;;;48.60;28.50;;;;;;;7.91;94.48;98831.28;106234;1277;138487;-73
2022/09/23 05:33:53;;;;;;;47.20;26.90;;;;;;;7.93;94.47;98831.74;109513;1276;22453;-74
2022/09/23 05:36:21;;;;;;;48.70;28.70;;;;;;;7.97;94.89;98835.05;109467;1277;23322;-74
2022/09/23 05:38:51;;;;;;;46.10;27.00;;;;;;;7.99;94.58;98830.87;109441;1277;138485;-74
2022/09/23 05:41:21;;;;;;;45.40;27.00;;;;;;;8.03;94.25;98834.60;109573;1276;22474;-74
2022/09/23 05:43:50;;;;;;;44.20;27.20;;;;;;;8.05;94.44;98836.38;109441;1277;138267;-75
2022/09/23 05:46:19;;;;;;;42.40;27.70;;;;;;;8.10;94.50;98837.30;105727;1277;23936;-73
2022/09/23 05:48:46;;;;;;;45.50;26.70;;;;;;;8.14;94.43;98838.73;105993;1274;22553;-72
2022/09/23 05:51:16;;;;;;;47.60;28.50;;;;;;;8.18;94.19;98839.99;105759;1277;138175;-73
2022/09/23 05:53:44;;;;;;;44.10;27.80;;;;;;;8.22;94.22;98841.17;106269;1274;25276;-73
2022/09/23 05:56:12;;;;;;;47.80;28.60;;;;;;;8.25;94.30;98847.41;105889;1274;139411;-73
2022/09/23 05:58:41;;;;;;;58.60;30.20;;;;;;;8.28;94.10;98848.44;105923;1274;25007;-76
2022/09/23 06:01:11;;;;;;;64.80;31.40;;;;;;;8.30;93.82;98850.42;105817;1274;138559;-73
2022/09/23 06:03:38;;;;;;;50.20;24.60;;;;;;;8.31;94.05;98850.80;105899;1274;25264;-75
2022/09/23 06:06:05;;;;;;;72.10;33.80;;;;;;;8.41;95.46;98848.27;105763;1277;22541;-73
2022/09/23 06:08:33;;;;;;;64.70;29.60;;;;;;;8.49;94.62;98848.38;105867;1277;138285;-73
2022/09/23 06:11:07;;;;;;;58.60;28.30;;;;;;;8.53;94.08;98851.27;105906;1277;22542;-73
2022/09/23 06:13:38;;;;;;;65.30;29.70;;;;;;;8.55;93.77;98848.53;106029;1274;138619;-74
2022/09/23 06:16:10;;;;;;;60.50;27.20;;;;;;;8.59;93.86;98848.71;105948;1274;23307;-73
2022/09/23 06:18:42;;;;;;;56.60;27.50;;;;;;;8.70;94.03;98848.95;105970;1274;25239;-73
2022/09/23 06:21:12;;;;;;;56.70;28.70;;;;;;;8.77;93.60;98849.87;105984;1274;138630;-75
2022/09/23 06:23:38;;;;;;;52.70;25.20;;;;;;;8.80;93.35;98850.95;105912;1274;24444;-73
2022/09/23 06:26:06;;;;;;;47.00;24.10;;;;;;;8.81;93.01;98850.35;106021;1276;138301;-74
2022/09/23 06:28:34;;;;;;;40.70;23.90;;;;;;;8.83;93.10;98849.33;105938;1277;25379;-75
2022/09/23 06:31:03;;;;;;;39.00;22.80;;;;;;;8.86;93.06;98851.89;105880;1277;138367;-72
2022/09/23 06:33:32;;;;;;;33.30;22.10;;;;;;;8.88;92.65;98851.29;105935;1274;24424;-73
2022/09/23 06:36:00;;;;;;;29.70;20.40;;;;;;;8.89;92.54;98850.98;105950;1274;22552;-73
2022/09/23 06:38:28;;;;;;;31.30;19.70;;;;;;;8.90;92.40;98853.10;105813;1274;138381;-73
2022/09/23 06:40:56;;;;;;;35.70;19.90;;;;;;;8.93;92.25;98851.48;105880;1277;22731;-73
2022/09/23 06:43:24;;;;;;;27.20;18.40;;;;;;;8.95;92.16;98853.67;106250;1274;138442;-73
2022/09/23 06:45:54;;;;;;;29.90;20.00;;;;;;;8.97;91.97;98856.70;106037;1277;24380;-73
2022/09/23 06:48:21;;;;;;;31.60;19.80;;;;;;;8.99;91.78;98856.23;106500;1277;23185;-73
2022/09/23 06:50:48;;;;;;;35.30;20.70;;;;;;;9.00;91.74;98855.13;105935;1277;138356;-72
2022/09/23 06:53:15;;;;;;;32.00;21.20;;;;;;;9.05;91.76;98859.52;106106;1277;23088;-74
2022/09/23 06:55:42;;;;;;;32.80;21.90;;;;;;;9.09;91.82;98860.39;105859;1274;138294;-74
2022/09/23 06:58:09;;;;;;;32.90;22.40;;;;;;;9.13;92.05;98862.60;105897;1274;22548;-73
2022/09/23 07:00:36;;;;;;;36.60;20.60;;;;;;;9.17;91.98;98864.65;105946;1274;22554;-73
2022/09/23 07:03:09;;;;;;;30.60;19.50;;;;;;;9.18;91.61;98863.60;106023;1274;139710;-73
2022/09/23 07:05:37;;;;;;;29.60;19.60;;;;;;;9.18;91.20;98863.84;105955;1277;22768;-73
2022/09/23 07:08:08;;;;;;;32.50;20.80;;;;;;;9.22;91.19;98866.10;105819;1277;138272;-73
2022/09/23 07:10:35;;;;;;;32.80;20.60;;;;;;;9.24;91.16;98864.08;106114;1277;22697;-72
2022/09/23 07:13:03;;;;;;;31.20;19.90;;;;;;;9.27;91.05;98867.59;105873;1277;138894;-73
2022/09/23 07:15:30;;;;;;;32.30;20.00;;;;;;;9.33;90.75;98863.05;106196;1274;25345;-73
2022/09/23 07:17:56;;;;;;;27.80;19.20;;;;;;;9.37;90.56;98867.44;105878;1274;24233;-73
2022/09/23 07:20:23;;;;;;;30.20;18.30;;;;;;;9.41;90.38;98864.50;106172;1277;138606;-73
2022/09/23 07:22:51;;;;;;;26.20;17.50;;;;;;;9.46;90.25;98864.48;106065;1274;25352;-73
2022/09/23 07:25:21;;;;;;;25.70;17.40;;;;;;;9.52;90.23;98861.56;105883;1275;139130;-73
2022/09/23 07:27:48;;;;;;;29.10;18.20;;;;;;;9.59;90.13;98862.52;105945;1277;22621;-73
2022/09/23 07:30:15;;;;;;;24.40;16.50;;;;;;;9.67;90.02;98860.63;105942;1277;25401;-73
2022/09/23 07:32:41;;;;;;;26.90;18.00;;;;;;;9.74;89.59;98865.59;105858;1277;138510;-73
2022/09/23 07:35:09;;;;;;;28.30;18.30;;;;;;;9.80;89.42;98858.69;105903;1274;25477;-73
2022/09/23 07:37:36;;;;;;;24.70;17.00;;;;;;;9.87;89.37;98866.34;105841;1274;138665;-73
2022/09/23 07:40:03;;;;;;;23.20;16.10;;;;;;;9.96;89.35;98868.05;106062;1274;22582;-72
2022/09/23 07:42:29;;;;;;;21.40;15.40;;;;;;;10.04;88.84;98868.65;105942;1274;24296;-74
2022/09/23 07:44:56;;;;;;;22.90;16.40;;;;;;;10.11;88.36;98865.11;105760;1277;138920;-75
2022/09/23 07:47:22;;;;;;;20.40;16.30;;;;;;;10.21;88.39;98871.14;105922;1277;22549;-72
2022/09/23 07:49:48;;;;;;;22.20;15.60;;;;;;;10.33;88.24;98869.72;105722;1277;138583;-72
2022/09/23 07:52:14;;;;;;;19.90;14.10;;;;;;;10.44;88.14;98864.14;105885;1277;22751;-73
2022/09/23 07:54:41;;;;;;;21.90;13.50;;;;;;;10.56;87.54;98859.80;105873;1277;22697;-74
2022/09/23 07:57:07;;;;;;;20.80;13.20;;;;;;;10.67;87.18;98858.82;105468;1277;138496;-72
2022/09/23 07:59:33;;;;;;;20.60;13.10;;;;;;;10.76;86.50;98861.05;106045;1277;22563;-72
2022/09/23 08:01:59;;;;;;;25.10;13.70;;;;;;;10.89;86.33;98860.96;105795;1277;142611;-72
2022/09/23 08:04:29;;;;;;;21.30;13.70;;;;;;;11.02;86.22;98859.59;106053;1277;22576;-72
2022/09/23 08:06:58;;;;;;;16.50;11.80;;;;;;;11.21;85.92;98858.52;105910;1277;138744;-73
2022/09/23 08:09:28;;;;;;;14.50;11.50;;;;;;;11.40;85.16;98855.91;106161;1277;25262;-72
2022/09/23 08:11:54;;;;;;;19.20;14.40;;;;;;;11.61;84.75;98851.01;105962;1277;22543;-72
2022/09/23 08:14:21;;;;;;;21.90;14.50;;;;;;;11.78;84.49;98854.55;105849;1277;138593;-73
2022/09/23 08:16:47;;;;;;;21.40;14.40;;;;;;;11.92;84.11;98850.06;105905;1277;24208;-72
2022/09/23 08:19:14;;;;;;;22.10;14.40;;;;;;;11.99;83.64;98854.88;105759;1277;138623;-72
2022/09/23 08:21:41;;;;;;;22.30;14.30;;;;;;;12.06;83.66;98851.52;106064;1277;25360;-72
2022/09/23 08:24:13;;;;;;;18.00;13.40;;;;;;;12.23;82.97;98852.31;106034;1277;25325;-72
2022/09/23 08:26:39;;;;;;;18.00;13.00;;;;;;;12.41;82.68;98851.64;105759;1277;139069;-72
2022/09/23 08:29:09;;;;;;;16.60;12.30;;;;;;;12.50;81.93;98851.95;105912;1277;24555;-72
2022/09/23 08:31:35;;;;;;;20.50;12.90;;;;;;;12.59;81.15;98847.41;105832;1277;138830;-72
2022/09/23 08:34:02;;;;;;;16.50;12.60;;;;;;;12.72;81.28;98844.81;105898;1274;25266;-72
2022/09/23 08:36:28;;;;;;;19.10;13.20;;;;;;;12.85;80.99;98843.27;105924;1274;23927;-72
2022/09/23 08:38:56;;;;;;;18.50;12.90;;;;;;;12.84;80.18;98838.83;105804;1274;138531;-71
2022/09/23 08:41:42;;;;;;;20.10;12.60;;;;;;;12.79;79.99;98841.86;105934;1274;22534;-72
2022/09/23 08:44:18;;;;;;;18.00;11.60;;;;;;;12.73;79.63;98842.11;105865;1274;138521;-72
2022/09/23 08:46:51;;;;;;;17.80;12.50;;;;;;;12.66;79.27;98842.38;106115;1277;22632;-72
2022/09/23 08:49:40;;;;;;;19.30;12.20;;;;;;;12.60;79.30;98838.05;105755;1277;138906;-72
2022/09/23 08:52:17;;;;;;;;;;;;;;;12.50;78.64;98836.23;105961;1277;22629;-72
2022/09/23 08:54:43;;;;;;;16.90;13.10;;;;;;;12.41;78.85;98832.23;106012;1277;23214;-73
2022/09/23 08:57:27;;;;;;;17.50;12.60;;;;;;;12.33;79.13;98831.14;105713;1277;138588;-73
2022/09/23 08:59:53;;;;;;;20.90;13.60;;;;;;;12.31;79.37;98832.36;105875;1277;22541;-71
2022/09/23 09:02:22;;;;;;;22.80;13.00;;;;;;;12.30;79.06;98832.17;105775;1277;140370;-71
2022/09/23 09:04:55;;;;;;;21.70;13.00;;;;;;;12.29;78.77;98832.31;106079;1277;24459;-71
2022/09/23 09:07:30;;;;;;;24.20;12.30;;;;;;;12.28;79.11;98831.52;105784;1277;138743;-76
2022/09/23 09:10:03;;;;;;;21.00;13.10;;;;;;;12.29;79.29;98830.79;105952;1277;22537;-74
2022/09/23 09:12:46;;;;;;;19.60;13.20;;;;;;;12.33;79.20;98830.64;105943;1277;22541;-72
2022/09/23 09:15:25;;;;;;;16.60;11.40;;;;;;;12.41;79.05;98833.65;105755;1277;138374;-72
2022/09/23 09:18:12;;;;;;;;;;;;;;;12.64;79.09;98833.27;105802;1277;24411;-71
2022/09/23 09:20:49;;;;;;;13.80;10.20;;;;;;;12.80;77.75;98833.73;105803;1277;125053;-74
2022/09/23 09:23:30;;;;;;;15.70;10.00;;;;;;;12.97;77.39;98829.12;105765;1277;25325;-72
2022/09/23 09:26:00;;;;;;;14.10;9.20;;;;;;;13.03;77.16;98824.88;105903;1277;138488;-74
2022/09/23 09:28:38;;;;;;;8.50;6.20;;;;;;;13.06;76.35;98822.85;105898;1277;22599;-71
2022/09/23 09:31:25;;;;;;;7.80;5.40;;;;;;;13.07;75.01;98817.12;105869;1277;138119;-72
2022/09/23 09:34:19;;;;;;;5.40;3.60;;;;;;;13.12;73.60;98816.96;107388;1276;22613;-72
2022/09/23 09:36:50;;;;;;;5.70;3.30;;;;;;;13.29;73.13;98812.33;106247;1275;22540;-72
2022/09/23 09:39:16;;;;;;;5.40;3.80;;;;;;;13.44;71.90;98807.73;105838;1274;138314;-71
2022/09/23 09:41:48;;;;;;;6.50;3.30;;;;;;;13.52;71.86;98809.25;106005;1274;27502;-74
2022/09/23 09:44:49;;;;;;;5.10;3.40;;;;;;;13.49;69.86;98807.23;105957;1274;138241;-74
2022/09/23 09:47:33;;;;;;;6.20;3.50;;;;;;;13.45;70.84;98807.67;105873;1274;25390;-72
2022/09/23 09:50:20;;;;;;;4.40;2.70;;;;;;;13.42;69.29;98810.98;105891;1274;138181;-72
2022/09/23 09:52:47;;;;;;;5.10;2.60;;;;;;;13.38;69.78;98807.09;105995;1277;23181;-71
2022/09/23 09:55:24;;;;;;;5.20;2.40;;;;;;;13.36;69.66;98802.31;105934;1274;138332;-72
2022/09/23 09:57:53;;;;;;;2.60;2.20;;;;;;;13.37;70.00;98801.28;106070;1274;25309;-72
2022/09/23 10:00:26;;;;;;;3.90;2.70;;;;;;;13.34;68.65;98799.00;105552;1278;22698;-72
2022/09/23 10:02:58;;;;;;;3.70;2.20;;;;;;;13.28;67.84;98800.73;105992;1277;138224;-72
2022/09/23 10:05:31;;;;;;;4.60;2.50;;;;;;;13.24;67.57;98798.64;105906;1277;22668;-72
2022/09/23 10:08:23;;;;;;;5.20;2.70;;;;;;;13.29;67.83;98796.80;105959;1276;139966;-73
2022/09/23 10:11:19;;;;;;;2.50;2.20;;;;;;;13.47;66.50;98795.39;105961;1274;24359;-72
2022/09/23 10:14:19;;;;;;;3.50;2.00;;;;;;;13.62;66.30;98795.62;105250;1281;138514;-71
2022/09/23 10:17:00;;;;;;;4.60;1.90;;;;;;;13.69;65.34;98794.10;105369;1281;24240;-71
2022/09/23 10:19:28;;;;;;;2.60;1.70;;;;;;;13.70;64.88;98787.66;105088;1283;137661;-72
2022/09/23 10:21:59;;;;;;;3.60;2.40;;;;;;;13.72;64.69;98785.65;105265;1283;24429;-72
2022/09/23 10:24:31;;;;;;;7.20;2.30;;;;;;;13.73;64.84;98787.24;105293;1283;25372;-72
2022/09/23 10:27:08;;;;;;;5.30;2.60;;;;;;;13.71;65.20;98784.77;105193;1283;137769;-71
2022/09/23 10:29:46;;;;;;;4.00;2.40;;;;;;;13.70;64.68;98784.75;105181;1283;25237;-71
2022/09/23 10:32:42;;;;;;;5.40;2.20;;;;;;;13.62;64.26;98784.29;105053;1283;137725;-71
2022/09/23 10:35:14;;;;;;;4.00;2.00;;;;;;;13.41;64.53;98780.94;105216;1283;22577;-71
2022/09/23 10:37:48;;;;;;;6.10;1.70;;;;;;;13.29;64.94;98776.67;105101;1283;138494;-72
2022/09/23 10:46:44;;;;;;;5.00;1.80;;;;;;;13.11;66.35;98778.02;104332;1291;25468;-72
2022/09/23 10:49:30;;;;;;;3.00;1.30;;;;;;;13.25;65.96;98772.30;105077;1283;138233;-71
2022/09/23 10:52:19;;;;;;;1.70;1.20;;;;;;;13.60;64.32;98770.46;105842;1274;22560;-72
2022/09/23 10:54:55;;;;;;;2.10;1.10;;;;;;;13.86;61.94;98769.60;106051;1274;23331;-72
2022/09/23 10:57:44;;;;;;;2.40;1.50;;;;;;;14.05;60.53;98766.98;105888;1275;137963;-72
2022/09/23 11:00:29;;;;;;;3.20;1.30;;;;;;;14.30;61.05;98762.25;105918;1274;22627;-71
2022/09/23 11:03:14;;;;;;;1.30;1.20;;;;;;;14.55;60.23;98758.55;105791;1275;137321;-71
2022/09/23 11:05:59;;;;;;;1.40;1.30;;;;;;;14.85;60.22;98753.67;105976;1275;22559;-71
2022/09/23 11:08:45;;;;;;;1.20;1.10;;;;;;;15.22;60.10;98748.25;105925;1274;137159;-71
2022/09/23 11:11:33;;;;;;;1.40;1.30;;;;;;;15.48;57.26;98755.05;105860;1277;30826;-71
2022/09/23 11:14:12;;;;;;;1.90;1.40;;;;;;;15.48;57.42;98751.58;106119;1278;137706;-71
2022/09/23 11:17:24;;;;;;;3.20;1.30;;;;;;;15.47;57.70;98750.47;105838;1277;24266;-71
2022/09/23 11:20:20;;;;;;;6.00;1.50;;;;;;;15.41;57.72;98747.87;105665;1278;137321;-71
2022/09/23 11:22:59;;;;;;;1.50;1.40;;;;;;;15.37;56.92;98746.44;105800;1274;22714;-70
2022/09/23 11:25:59;;;;;;;1.40;1.30;;;;;;;15.23;56.39;98742.70;105778;1274;137516;-71
2022/09/23 11:28:40;;;;;;;2.10;1.10;;;;;;;14.83;55.84;98738.73;105760;1274;170115;-71
2022/09/23 11:31:21;;;;;;;3.20;1.30;;;;;;;14.52;57.43;98742.63;105753;1278;137904;-71
2022/09/23 11:34:16;;;;;;;5.30;1.40;;;;;;;14.25;58.27;98743.20;105863;1277;25633;-71
2022/09/23 11:36:51;;;;;;;4.10;1.60;;;;;;;14.05;59.04;98738.77;105917;1277;22716;-71
2022/09/23 11:39:23;;;;;;;1.30;1.10;;;;;;;13.92;59.11;98734.44;105746;1278;137433;-71
2022/09/23 11:41:54;;;;;;;2.30;1.20;;;;;;;13.85;59.00;98732.14;105909;1274;30679;-72
2022/09/23 11:44:28;;;;;;;1.60;1.40;;;;;;;13.80;58.57;98734.51;106090;1274;137341;-72
2022/09/23 11:47:02;;;;;;;1.10;0.90;;;;;;;13.81;58.94;98734.30;105882;1275;22564;-71
2022/09/23 11:49:40;;;;;;;1.50;1.40;;;;;;;14.11;59.03;98727.31;105815;1275;137714;-72